Pagrindinis puslapis
METAR-TAF:

METAR-TAF

Oro uostai :

Midvėjaus, Jungtinės Amerikos Valstijos

platuma: 28-13N, ilguma: 177-22W, Aukštis: 4 m

Dabartinis oras

Ataskaita buvo paskelbta 1 valandą ir 1 minutes, ne 03:56 UTC
Vėjas 5 kt iš Pietų/Pietvakarių
Temperatūra 29°C
Drėgmė 74%
Slėgis 1018 hPa
Matomumas: 11.3 km
Išsisklaidę debesys ne aukštis 3300 ft
Su prošvaistėmis ne aukštis 6000 ft

METAR: PMDY 180356Z AUTO 20005KT 7SM SCT033 BKN060 29/24 A3006 RMK AO2 SLP179 T02940244

Laikas: 18:57 (04:57 UTC)

Prognozė

Ataskaita buvo paskelbta 5 valandos ir 19 minutes, ne 23:38 UTC
Prognozė galioja nuo 18 metu 00 UTC su 18 metu 24 UTC
Vėjas 7 kt iš Pietų
Matomumas: 10 km
Išsisklaidę debesys ne aukštis 2000 ft

TAF: PMDY 172338Z 1800/1824 19007KT P6SM SCT020

Orai ataskaitas ir orų prognozės (METAR, TAF).

turimą stotys yra geltonos ir raudonos taškus žemėlapyje.

Perkelti pele per norėdami pamatyti stoties vardą.

Tada spustelėkite, norėdami matyti oro stebėjimo ir prognozės.

Norėdami pakeisti žemėlapį: spustelėkite ant žalios mygtukų su juodo kryžiaus žemyn,; žalią mygtuką su brūkšneliu, jei norite nutolinti; arba žalių rodyklių gretimoms žemėlapius.


METAR-TAF: